createdAt,value
2023-03-25T00:02:27.588Z,99921.94
2023-03-25T00:04:54.881Z,99986.59
2023-03-25T00:07:22.736Z,99917.53
2023-03-25T00:09:49.858Z,99914.88
2023-03-25T00:12:19.486Z,100006.09
2023-03-25T00:14:54.679Z,99918.44
2023-03-25T00:17:23.555Z,99906.91
2023-03-25T00:19:53.199Z,99906.03
2023-03-25T00:22:19.771Z,99906.03
2023-03-25T00:24:46.326Z,99922.84
2023-03-25T00:27:14.289Z,100002.53
2023-03-25T00:29:42.124Z,99982.19
2023-03-25T00:32:08.822Z,100001.72
2023-03-25T00:34:35.523Z,100000.84
2023-03-25T00:37:02.440Z,99919.31
2023-03-25T00:39:29.157Z,99970.69
2023-03-25T00:41:57.203Z,99968.06
2023-03-25T00:44:23.766Z,99937.03
2023-03-25T00:46:51.497Z,99970.72
2023-03-25T00:49:18.140Z,99990.25
2023-03-25T00:51:53.274Z,99894.59
2023-03-25T00:54:22.304Z,99968.94
2023-03-25T00:56:50.493Z,99968.13
2023-03-25T00:59:17.121Z,99971.59
2023-03-25T01:01:46.068Z,99881.31
2023-03-25T01:04:12.793Z,99837.09
2023-03-25T01:06:43.869Z,99956.53
2023-03-25T01:09:13.883Z,99991.13
2023-03-25T01:11:44.083Z,99850.34
2023-03-25T01:14:17.331Z,99976.97
2023-03-25T01:16:44.680Z,99968.94
2023-03-25T01:19:12.657Z,99890.19
2023-03-25T01:21:39.258Z,99919.38
2023-03-25T01:24:07.426Z,99905.19
2023-03-25T01:26:34.319Z,99914.03
2023-03-25T01:29:01.922Z,99939.69
2023-03-25T01:31:30.739Z,100003.41
2023-03-25T01:33:58.140Z,99984.84
2023-03-25T01:36:29.413Z,99959.16
2023-03-25T01:38:58.905Z,99964.47
2023-03-25T01:41:33.193Z,99908.72
2023-03-25T01:44:18.387Z,99984.88
2023-03-25T01:46:47.039Z,99899.81
2023-03-25T01:49:21.378Z,99979.47
2023-03-25T01:51:50.182Z,99887.41
2023-03-25T01:54:19.896Z,99959.09
2023-03-25T01:56:49.311Z,99899.75
2023-03-25T01:59:18.944Z,99889.94
2023-03-25T02:01:46.841Z,99971.47
2023-03-25T02:04:16.702Z,100005.06
2023-03-25T02:06:46.442Z,99898.81
2023-03-25T02:09:16.310Z,99953.72
2023-03-25T02:11:42.986Z,99988.22
2023-03-25T02:14:16.525Z,99953.66
2023-03-25T02:17:01.152Z,99870.44
2023-03-25T02:19:37.006Z,100000.53
2023-03-25T02:22:37.646Z,99984.66
2023-03-25T02:25:35.193Z,99986.34
2023-03-25T02:28:01.845Z,99987.09
2023-03-25T02:30:39.248Z,99996.75
2023-03-25T02:33:32.277Z,99952.50
2023-03-25T02:36:11.498Z,99939.22
2023-03-25T02:38:51.186Z,99838.41
2023-03-25T02:41:28.359Z,99976.41
2023-03-25T02:44:13.025Z,99930.44
2023-03-25T02:46:51.917Z,99883.53
2023-03-25T02:49:25.026Z,99873.88
2023-03-25T02:52:09.514Z,99864.16
2023-03-25T02:54:39.337Z,99936.75
2023-03-25T02:57:08.963Z,99981.09
2023-03-25T02:59:38.223Z,99883.69
2023-03-25T03:02:09.151Z,99824.41
2023-03-25T03:04:52.501Z,99971.41
2023-03-25T03:07:30.648Z,99965.25
2023-03-25T03:10:20.468Z,99945.78
2023-03-25T03:12:59.128Z,99968.63
2023-03-25T03:15:41.087Z,99952.63
2023-03-25T03:18:38.023Z,99970.25
2023-03-25T03:21:13.658Z,99922.44
2023-03-25T03:23:46.002Z,99972.03
2023-03-25T03:26:43.292Z,99964.94
2023-03-25T03:29:32.274Z,99979.13
2023-03-25T03:32:07.087Z,99949.94
2023-03-25T03:34:44.700Z,99793.38
2023-03-25T03:37:19.567Z,99857.13
2023-03-25T03:39:48.600Z,99874.81
2023-03-25T03:42:18.879Z,99972.25
2023-03-25T03:44:50.630Z,99981.97
2023-03-25T03:47:27.768Z,99935.94
2023-03-25T03:49:59.456Z,99948.34
2023-03-25T03:52:33.486Z,99935.06
2023-03-25T03:55:14.629Z,99885.47
2023-03-25T03:57:46.249Z,99950.13
2023-03-25T04:00:16.003Z,99973.03
2023-03-25T04:03:14.496Z,99972.06
2023-03-25T04:05:52.189Z,99855.13
2023-03-25T04:08:29.417Z,99950.69
2023-03-25T04:11:01.529Z,99875.41
2023-03-25T04:13:35.355Z,99864.78
2023-03-25T04:16:02.326Z,99857.69
2023-03-25T04:18:29.595Z,99932.00
2023-03-25T04:20:56.262Z,99861.94
2023-03-25T04:23:22.825Z,99942.56
2023-03-25T04:25:55.188Z,99956.72
2023-03-25T04:28:23.936Z,99835.56
2023-03-25T04:30:55.843Z,99841.00
2023-03-25T04:33:23.574Z,99863.19
2023-03-25T04:35:51.124Z,99834.94
2023-03-25T04:38:20.830Z,99846.44
2023-03-25T04:40:47.640Z,99853.56
2023-03-25T04:43:17.528Z,99925.31
2023-03-25T04:45:49.428Z,99857.13
2023-03-25T04:48:22.562Z,99870.44
2023-03-25T04:50:51.623Z,99849.25
2023-03-25T04:53:18.697Z,99928.00
2023-03-25T04:55:48.148Z,99933.31
2023-03-25T04:58:17.694Z,99863.44
2023-03-25T05:00:46.950Z,99853.66
2023-03-25T05:03:15.826Z,99917.41
2023-03-25T05:05:42.427Z,99843.09
2023-03-25T05:08:11.538Z,99829.75
2023-03-25T05:10:38.831Z,99906.78
2023-03-25T05:13:07.571Z,99851.94
2023-03-25T05:15:39.292Z,99832.44
2023-03-25T05:18:15.115Z,99860.75
2023-03-25T05:20:43.924Z,99874.00
2023-03-25T05:23:17.721Z,99871.34
2023-03-25T05:25:47.461Z,99881.94
2023-03-25T05:28:14.931Z,99885.50
2023-03-25T05:30:45.351Z,99705.81
2023-03-25T05:33:18.903Z,99863.22
2023-03-25T05:35:45.848Z,99976.47
2023-03-25T05:38:13.685Z,99973.78
2023-03-25T05:40:40.430Z,99883.44
2023-03-25T05:43:07.470Z,99867.59
2023-03-25T05:45:35.971Z,99868.38
2023-03-25T05:48:03.575Z,99891.38
2023-03-25T05:50:31.568Z,99894.91
2023-03-25T05:52:59.843Z,99864.00
2023-03-25T05:55:27.513Z,99929.50
2023-03-25T05:57:54.140Z,99954.28
2023-03-25T06:00:24.605Z,99977.34
2023-03-25T06:02:52.177Z,99972.91
2023-03-25T06:05:23.457Z,99942.78
2023-03-25T06:07:50.607Z,99941.88
2023-03-25T06:10:18.304Z,99951.59
2023-03-25T06:12:46.839Z,99968.41
2023-03-25T06:15:17.921Z,99885.16
2023-03-25T06:17:46.633Z,99872.69
2023-03-25T06:20:19.270Z,99950.63
2023-03-25T06:22:46.236Z,99987.88
2023-03-25T06:25:19.001Z,99902.84
2023-03-25T06:27:48.361Z,99831.25
2023-03-25T06:30:18.858Z,99904.69
2023-03-25T06:32:50.424Z,99949.00
2023-03-25T06:35:19.787Z,100007.53
2023-03-25T06:37:47.877Z,99959.72
2023-03-25T06:40:22.400Z,99957.94
2023-03-25T06:42:49.072Z,99902.16
2023-03-25T06:45:24.583Z,99974.78
2023-03-25T06:48:12.512Z,99981.78
2023-03-25T06:50:38.998Z,99990.53
2023-03-25T06:53:05.621Z,99899.34
2023-03-25T06:55:32.160Z,99882.56
2023-03-25T06:57:58.658Z,99917.19
2023-03-25T07:00:26.853Z,100018.34
2023-03-25T07:02:53.459Z,99753.00
2023-03-25T07:05:20.310Z,99925.63
2023-03-25T07:07:46.970Z,99946.91
2023-03-25T07:10:14.248Z,99981.41
2023-03-25T07:12:41.311Z,99935.44
2023-03-25T07:15:08.617Z,99980.56
2023-03-25T07:17:37.404Z,99983.19
2023-03-25T07:20:06.219Z,99984.06
2023-03-25T07:22:33.043Z,99903.50
2023-03-25T07:24:59.678Z,100006.19
2023-03-25T07:27:26.523Z,99942.38
2023-03-25T07:30:04.686Z,99906.94
2023-03-25T07:32:31.361Z,99922.84
2023-03-25T07:34:57.912Z,100006.09
2023-03-25T07:37:24.488Z,99997.25
2023-03-25T07:39:51.175Z,99993.69
2023-03-25T07:42:17.792Z,100009.69
2023-03-25T07:45:11.434Z,100018.53
2023-03-25T07:47:40.453Z,99999.09
2023-03-25T07:50:07.686Z,100018.59
2023-03-25T07:52:36.031Z,99926.59
2023-03-25T07:55:02.649Z,99951.34
2023-03-25T07:57:30.648Z,99928.34
2023-03-25T07:59:57.276Z,100010.59
2023-03-25T08:02:23.957Z,100002.34
2023-03-25T08:04:50.466Z,99960.59
2023-03-25T08:07:17.145Z,99997.72
2023-03-25T08:09:43.829Z,99888.72
2023-03-25T08:12:10.434Z,100023.25
2023-03-25T08:14:37.168Z,99941.81
2023-03-25T08:17:06.256Z,100043.78
2023-03-25T08:19:33.603Z,99979.16
2023-03-25T08:22:00.631Z,100016.47
2023-03-25T08:24:29.959Z,100001.50
2023-03-25T08:26:56.570Z,100034.34
2023-03-25T08:29:24.624Z,99962.69
2023-03-25T08:31:52.394Z,100026.41
2023-03-25T08:34:21.068Z,100039.78
2023-03-25T08:36:47.862Z,99979.56
2023-03-25T08:39:17.023Z,100054.88
2023-03-25T08:41:44.957Z,99979.66
2023-03-25T08:44:11.844Z,99982.31
2023-03-25T08:46:38.576Z,100060.22
2023-03-25T08:49:06.453Z,100046.03
2023-03-25T08:51:33.088Z,99951.34
2023-03-25T08:54:00.983Z,99977.00
2023-03-25T08:56:28.015Z,100048.69
2023-03-25T08:58:54.692Z,100049.56
2023-03-25T09:01:21.995Z,100006.00
2023-03-25T09:03:48.603Z,99990.31
2023-03-25T09:06:15.547Z,100047.66
2023-03-25T09:08:42.244Z,100051.13
2023-03-25T09:11:08.852Z,100056.63
2023-03-25T09:13:35.730Z,100059.63
2023-03-25T09:16:02.476Z,100077.34
2023-03-25T09:18:31.942Z,99997.97
2023-03-25T09:21:00.253Z,100071.56
2023-03-25T09:23:27.209Z,99986.72
2023-03-25T09:25:53.816Z,100023.91
2023-03-25T09:28:20.499Z,100043.41
2023-03-25T09:30:47.020Z,99988.50
2023-03-25T09:33:14.265Z,100058.41
2023-03-25T09:35:41.576Z,100070.47
2023-03-25T09:38:08.459Z,100043.97
2023-03-25T09:40:35.310Z,99971.63
2023-03-25T09:43:08.698Z,100078.75
2023-03-25T09:45:35.773Z,100082.34
2023-03-25T09:48:34.956Z,100078.78
2023-03-25T09:51:07.436Z,100058.41
2023-03-25T09:53:46.622Z,100076.06
2023-03-25T09:56:29.002Z,100055.56
2023-03-25T09:59:03.974Z,99993.66
2023-03-25T10:01:44.608Z,100079.53
2023-03-25T10:04:58.796Z,100004.34
2023-03-25T10:07:36.432Z,100075.25
2023-03-25T10:10:05.717Z,100101.84
2023-03-25T10:12:39.127Z,100094.69
2023-03-25T10:15:32.664Z,100093.75
2023-03-25T10:18:14.986Z,100090.16
2023-03-25T10:20:55.830Z,100104.31
2023-03-25T10:23:41.295Z,100012.09
2023-03-25T10:26:16.564Z,100067.91
2023-03-25T10:28:50.971Z,100077.78
2023-03-25T10:31:22.511Z,100086.69
2023-03-25T10:34:00.323Z,100115.06
2023-03-25T10:36:49.186Z,100119.53
2023-03-25T10:39:21.163Z,100020.34
2023-03-25T10:41:57.794Z,100092.91
2023-03-25T10:44:26.794Z,100027.38
2023-03-25T10:47:16.668Z,100106.25
2023-03-25T10:49:44.787Z,100096.41
2023-03-25T10:52:11.575Z,100074.06
2023-03-25T10:54:42.998Z,100111.16
2023-03-25T10:57:16.671Z,100013.66
2023-03-25T11:00:20.912Z,100074.97
2023-03-25T11:02:47.966Z,100078.78
2023-03-25T11:05:19.492Z,100078.72
2023-03-25T11:07:51.229Z,100077.88
2023-03-25T11:10:26.482Z,100103.69
2023-03-25T11:12:54.485Z,100038.91
2023-03-25T11:15:37.897Z,100112.97
2023-03-25T11:18:12.175Z,100094.38
2023-03-25T11:20:45.880Z,99983.66
2023-03-25T11:23:27.096Z,100019.34
2023-03-25T11:25:55.791Z,100039.81
2023-03-25T11:28:37.477Z,100110.13
2023-03-25T11:31:10.563Z,100034.94
2023-03-25T11:33:37.762Z,100092.34
2023-03-25T11:36:27.428Z,100101.56
2023-03-25T11:39:04.684Z,100115.78
2023-03-25T11:41:33.843Z,100109.59
2023-03-25T11:44:01.896Z,100093.91
2023-03-25T11:46:28.743Z,100104.09
2023-03-25T11:48:55.441Z,100097.53
2023-03-25T11:51:27.974Z,100108.22
2023-03-25T11:53:59.624Z,100120.13
2023-03-25T11:56:33.997Z,100127.31
2023-03-25T11:59:02.053Z,100086.84
2023-03-25T12:01:45.636Z,100086.22
2023-03-25T12:04:21.087Z,100053.28
2023-03-25T12:07:10.051Z,100116.38
2023-03-25T12:09:36.816Z,100109.34
2023-03-25T12:12:23.053Z,100111.66
2023-03-25T12:15:25.490Z,100099.28
2023-03-25T12:18:04.606Z,100088.09
2023-03-25T12:20:49.025Z,100095.03
2023-03-25T12:23:24.777Z,100102.41
2023-03-25T12:26:01.178Z,100103.78
2023-03-25T12:28:33.716Z,100070.22
2023-03-25T12:31:19.044Z,100081.13
2023-03-25T12:33:55.317Z,100079.53
2023-03-25T12:36:40.551Z,100070.09
2023-03-25T12:39:42.326Z,99949.16
2023-03-25T12:42:10.153Z,100060.88
2023-03-25T12:44:45.742Z,100071.69
2023-03-25T12:47:34.272Z,100047.09
2023-03-25T12:50:24.003Z,100062.69
2023-03-25T12:53:00.533Z,100009.56
2023-03-25T12:55:51.612Z,99981.28
2023-03-25T12:58:55.923Z,100087.50
2023-03-25T13:01:41.440Z,100093.59
2023-03-25T13:04:20.210Z,100099.09
2023-03-25T13:07:20.489Z,100093.28
2023-03-25T13:09:52.169Z,100098.25
2023-03-25T13:12:54.138Z,100092.69
2023-03-25T13:15:27.848Z,100019.06
2023-03-25T13:18:03.998Z,100059.28
2023-03-25T13:20:37.673Z,100085.22
2023-03-25T13:23:06.133Z,100097.06
2023-03-25T13:25:44.597Z,100023.75
2023-03-25T13:28:16.147Z,100086.63
2023-03-25T13:30:45.895Z,100006.16
2023-03-25T13:33:16.946Z,100047.81
2023-03-25T13:35:56.102Z,100144.34
2023-03-25T13:38:33.976Z,100124.66
2023-03-25T13:41:23.625Z,100126.50
2023-03-25T13:44:06.670Z,99979.25
2023-03-25T13:46:40.898Z,100076.41
2023-03-25T13:49:21.141Z,100116.50
2023-03-25T13:51:48.025Z,100094.59
2023-03-25T13:54:23.473Z,99997.69
2023-03-25T13:57:27.751Z,100107.63
2023-03-25T14:00:33.452Z,100120.47
2023-03-25T14:03:37.662Z,100120.38
2023-03-25T14:06:34.973Z,100028.59
2023-03-25T14:09:29.189Z,100108.66
2023-03-25T14:12:10.054Z,100110.72
2023-03-25T14:14:49.212Z,100089.44
2023-03-25T14:17:17.746Z,100095.44
2023-03-25T14:19:50.039Z,100088.19
2023-03-25T14:22:21.155Z,100043.81
2023-03-25T14:24:49.803Z,100115.16
2023-03-25T14:27:37.508Z,100115.34
2023-03-25T14:30:08.413Z,100021.91
2023-03-25T14:32:40.749Z,100020.31
2023-03-25T14:35:32.891Z,100121.97
2023-03-25T14:38:05.819Z,100125.78
2023-03-25T14:40:55.369Z,100127.84
2023-03-25T14:43:36.650Z,100136.19
2023-03-25T14:46:05.098Z,100077.28
2023-03-25T14:48:37.835Z,100135.00
2023-03-25T14:51:23.689Z,100131.47
2023-03-25T14:54:13.669Z,100143.22
2023-03-25T14:56:54.524Z,100146.69
2023-03-25T14:59:28.088Z,100138.31
2023-03-25T15:02:25.342Z,100111.75
2023-03-25T15:05:12.868Z,100154.25
2023-03-25T15:07:42.906Z,100138.22
2023-03-25T15:10:20.970Z,100114.56
2023-03-25T15:12:52.736Z,100038.84
2023-03-25T15:15:32.590Z,100140.53
2023-03-25T15:18:00.361Z,100144.09
2023-03-25T15:20:29.401Z,100116.31
2023-03-25T15:23:27.858Z,100159.09
2023-03-25T15:25:57.247Z,100134.47
2023-03-25T15:28:42.449Z,100145.56
2023-03-25T15:31:22.513Z,100136.13
2023-03-25T15:33:55.204Z,100095.56
2023-03-25T15:36:31.127Z,100185.16
2023-03-25T15:39:13.156Z,100096.56
2023-03-25T15:42:06.325Z,100189.94
2023-03-25T15:44:35.949Z,100189.88
2023-03-25T15:47:14.750Z,100186.03
2023-03-25T15:50:15.106Z,100125.03
2023-03-25T15:53:01.032Z,100194.25
2023-03-25T15:55:57.113Z,100174.81
2023-03-25T15:58:32.270Z,100126.13
2023-03-25T16:01:12.573Z,100149.38
2023-03-25T16:03:39.968Z,100202.56
2023-03-25T16:06:07.842Z,100199.06
2023-03-25T16:08:39.831Z,100115.81
2023-03-25T16:11:23.017Z,100222.06
2023-03-25T16:14:03.384Z,100120.25
2023-03-25T16:16:35.724Z,100175.06
2023-03-25T16:19:05.083Z,100206.03
2023-03-25T16:21:33.048Z,100164.28
2023-03-25T16:24:04.976Z,100175.88
2023-03-25T16:26:44.126Z,100212.19
2023-03-25T16:29:21.592Z,100134.00
2023-03-25T16:31:57.442Z,100202.22
2023-03-25T16:34:25.773Z,100145.69
2023-03-25T16:36:53.940Z,100188.25
2023-03-25T16:39:22.554Z,100206.06
2023-03-25T16:41:51.497Z,100222.91
2023-03-25T16:44:23.688Z,100216.78
2023-03-25T16:46:52.792Z,100209.75
2023-03-25T16:49:34.556Z,100228.41
2023-03-25T16:52:06.690Z,100156.69
2023-03-25T16:54:43.786Z,100216.06
2023-03-25T16:57:25.640Z,100231.13
2023-03-25T16:59:54.291Z,100245.31
2023-03-25T17:02:27.765Z,100240.91
2023-03-25T17:04:57.369Z,100227.59
2023-03-25T17:07:28.139Z,100232.03
2023-03-25T17:09:58.007Z,100201.00
2023-03-25T17:12:27.348Z,100229.38
2023-03-25T17:15:06.880Z,100238.28
2023-03-25T17:17:51.172Z,100262.22
2023-03-25T17:20:22.022Z,100245.41
2023-03-25T17:23:18.001Z,100205.41
2023-03-25T17:25:52.985Z,100292.22
2023-03-25T17:28:19.830Z,100285.91
2023-03-25T17:30:46.841Z,100226.50
2023-03-25T17:33:35.176Z,100278.91
2023-03-25T17:36:03.724Z,100161.88
2023-03-25T17:38:36.616Z,100270.09
2023-03-25T17:41:06.710Z,100275.41
2023-03-25T17:43:36.864Z,100259.47
2023-03-25T17:46:06.333Z,100207.13
2023-03-25T17:48:33.424Z,100266.56
2023-03-25T17:51:00.429Z,100211.59
2023-03-25T17:53:27.254Z,100269.25
2023-03-25T17:55:54.855Z,100284.34
2023-03-25T17:58:22.960Z,100242.66
2023-03-25T18:00:50.204Z,100274.59
2023-03-25T18:03:22.835Z,100260.41
2023-03-25T18:05:53.447Z,100267.50
2023-03-25T18:08:22.913Z,100317.22
2023-03-25T18:10:53.994Z,100301.22
2023-03-25T18:13:22.489Z,100294.09
2023-03-25T18:15:49.894Z,100297.59
2023-03-25T18:18:19.562Z,100317.09
2023-03-25T18:20:46.797Z,100348.13
2023-03-25T18:23:14.779Z,100339.25
2023-03-25T18:25:41.669Z,100270.06
2023-03-25T18:28:10.687Z,100333.97
2023-03-25T18:30:44.166Z,100328.53
2023-03-25T18:33:11.323Z,100327.47
2023-03-25T18:35:38.054Z,100227.16
2023-03-25T18:38:04.839Z,100347.84
2023-03-25T18:40:35.864Z,100334.50
2023-03-25T18:43:04.163Z,100351.44
2023-03-25T18:45:31.179Z,100362.97
2023-03-25T18:47:57.995Z,100331.88
2023-03-25T18:50:31.358Z,100362.91
2023-03-25T18:52:58.950Z,100346.94
2023-03-25T18:55:28.119Z,100367.31
2023-03-25T18:57:55.538Z,100359.34
2023-03-25T19:00:23.953Z,100274.06
2023-03-25T19:02:52.525Z,100372.63
2023-03-25T19:05:20.432Z,100334.44
2023-03-25T19:07:47.538Z,100355.78
2023-03-25T19:10:25.703Z,100355.84
2023-03-25T19:12:52.500Z,100313.22
2023-03-25T19:15:21.514Z,100383.34
2023-03-25T19:17:48.917Z,100383.38
2023-03-25T19:20:21.951Z,100393.09
2023-03-25T19:22:48.764Z,100400.19
2023-03-25T19:25:16.640Z,100406.34
2023-03-25T19:27:44.260Z,100370.81
2023-03-25T19:30:15.246Z,100318.38
2023-03-25T19:32:42.742Z,100383.19
2023-03-25T19:35:11.820Z,100378.75
2023-03-25T19:37:38.950Z,100418.72
2023-03-25T19:40:08.550Z,100392.94
2023-03-25T19:42:36.999Z,100410.72
2023-03-25T19:45:09.431Z,100325.41
2023-03-25T19:47:42.036Z,100402.69
2023-03-25T19:50:10.897Z,100411.47
2023-03-25T19:52:37.633Z,100388.22
2023-03-25T19:55:05.648Z,100375.78
2023-03-25T19:57:32.644Z,100366.03
2023-03-25T19:59:59.436Z,100364.16
2023-03-25T20:02:26.111Z,100294.72
2023-03-25T20:04:52.943Z,100373.63
2023-03-25T20:07:20.558Z,100355.69
2023-03-25T20:09:47.197Z,100402.69
2023-03-25T20:12:13.789Z,100414.13
2023-03-25T20:14:40.750Z,100412.28
2023-03-25T20:17:07.307Z,100381.09
2023-03-25T20:19:33.943Z,100382.00
2023-03-25T20:22:00.553Z,100399.59
2023-03-25T20:24:27.235Z,100346.13
2023-03-25T20:26:53.872Z,100390.63
2023-03-25T20:29:22.182Z,100390.56
2023-03-25T20:31:48.878Z,100407.47
2023-03-25T20:34:15.427Z,100408.34
2023-03-25T20:36:42.183Z,100394.91
2023-03-25T20:39:08.812Z,100320.22
2023-03-25T20:41:35.759Z,100303.16
2023-03-25T20:44:02.422Z,100431.03
2023-03-25T20:46:31.386Z,100377.59
2023-03-25T20:48:58.706Z,100376.53
2023-03-25T20:51:25.809Z,100435.13
2023-03-25T20:53:53.151Z,100402.16
2023-03-25T20:56:19.901Z,100408.38
2023-03-25T20:58:46.698Z,100323.97
2023-03-25T21:01:15.499Z,100315.88
2023-03-25T21:03:42.775Z,100391.38
2023-03-25T21:06:22.861Z,100398.69
2023-03-25T21:08:51.379Z,100389.69
2023-03-25T21:11:18.014Z,100436.81
2023-03-25T21:13:44.600Z,100433.16
2023-03-25T21:16:11.697Z,100332.06
2023-03-25T21:18:38.476Z,100349.81
2023-03-25T21:21:06.460Z,100456.63
2023-03-25T21:23:33.094Z,100427.34
2023-03-25T21:26:02.050Z,100382.00
2023-03-25T21:28:30.330Z,100469.03
2023-03-25T21:31:05.773Z,100412.06
2023-03-25T21:33:34.025Z,100461.00
2023-03-25T21:36:01.660Z,100473.53
2023-03-25T21:38:29.486Z,100450.34
2023-03-25T21:40:57.350Z,100462.69
2023-03-25T21:43:24.108Z,100456.59
2023-03-25T21:45:51.024Z,100460.91
2023-03-25T21:48:19.955Z,100420.06
2023-03-25T21:50:47.607Z,100454.00
2023-03-25T21:53:21.027Z,100436.06
2023-03-25T21:56:00.074Z,100444.91
2023-03-25T21:58:27.611Z,100446.66
2023-03-25T22:01:00.870Z,100483.03
2023-03-25T22:03:35.178Z,100430.53
2023-03-25T22:06:04.189Z,100482.81
2023-03-25T22:08:31.104Z,100493.41
2023-03-25T22:11:06.401Z,100488.78
2023-03-25T22:13:33.107Z,100474.28
2023-03-25T22:15:59.960Z,100470.63
2023-03-25T22:18:27.406Z,100481.28
2023-03-25T22:20:54.385Z,100483.13
2023-03-25T22:23:21.486Z,100514.28
2023-03-25T22:25:48.090Z,100493.16
2023-03-25T22:28:14.662Z,100478.13
2023-03-25T22:30:41.319Z,100474.72
2023-03-25T22:33:09.152Z,100445.41
2023-03-25T22:35:38.458Z,100487.22
2023-03-25T22:38:05.322Z,100490.78
2023-03-25T22:40:32.310Z,100401.97
2023-03-25T22:42:59.026Z,100503.44
2023-03-25T22:45:25.659Z,100377.13
2023-03-25T22:47:52.874Z,100413.50
2023-03-25T22:50:19.572Z,100449.19
2023-03-25T22:52:46.349Z,100484.81
2023-03-25T22:55:12.954Z,100512.50
2023-03-25T22:57:39.536Z,100514.28
2023-03-25T23:00:12.674Z,100432.38
2023-03-25T23:02:39.598Z,100464.47
2023-03-25T23:05:06.768Z,100422.66
2023-03-25T23:07:33.483Z,100492.91
2023-03-25T23:10:00.205Z,100496.63
2023-03-25T23:12:27.152Z,100489.34
2023-03-25T23:14:56.191Z,100526.69
2023-03-25T23:17:23.769Z,100513.19
2023-03-25T23:19:50.650Z,100424.19
2023-03-25T23:22:17.217Z,100445.59
2023-03-25T23:24:44.221Z,100467.03
2023-03-25T23:27:12.234Z,100507.09
2023-03-25T23:29:40.099Z,100523.16
2023-03-25T23:32:08.546Z,100531.13
2023-03-25T23:34:36.051Z,100523.94
2023-03-25T23:37:03.117Z,100423.34
2023-03-25T23:39:30.147Z,100508.84
2023-03-25T23:41:57.119Z,100526.72
2023-03-25T23:44:23.790Z,100525.00
2023-03-25T23:46:53.293Z,100404.13
2023-03-25T23:49:21.363Z,100508.22
2023-03-25T23:51:51.009Z,100484.19
2023-03-25T23:54:17.922Z,100527.88
2023-03-25T23:56:44.701Z,100494.09
2023-03-25T23:59:12.835Z,100442.47
